createdAt,value
2023-02-24T00:02:15.287Z,100.00
2023-02-24T00:05:23.801Z,100.00
2023-02-24T00:08:30.329Z,100.00
2023-02-24T00:11:37.616Z,100.00
2023-02-24T00:14:45.915Z,100.00
2023-02-24T00:17:52.517Z,100.00
2023-02-24T00:21:05.771Z,100.00
2023-02-24T00:24:13.042Z,100.00
2023-02-24T00:27:19.409Z,100.00
2023-02-24T00:30:26.728Z,100.00
2023-02-24T00:33:34.057Z,100.00
2023-02-24T00:36:42.221Z,100.00
2023-02-24T00:39:48.468Z,100.00
2023-02-24T00:42:55.326Z,100.00
2023-02-24T00:46:02.744Z,100.00
2023-02-24T00:49:12.821Z,100.00
2023-02-24T00:52:21.916Z,100.00
2023-02-24T00:55:36.501Z,100.00
2023-02-24T00:58:45.018Z,100.00
2023-02-24T01:01:52.127Z,100.00
2023-02-24T01:04:58.498Z,100.00
2023-02-24T01:08:06.461Z,100.00
2023-02-24T01:11:35.465Z,100.00
2023-02-24T01:14:41.515Z,100.00
2023-02-24T01:17:48.080Z,100.00
2023-02-24T01:20:54.357Z,100.00
2023-02-24T01:24:02.161Z,100.00
2023-02-24T01:27:09.904Z,100.00
2023-02-24T01:30:18.522Z,100.00
2023-02-24T01:33:24.958Z,100.00
2023-02-24T01:36:31.278Z,100.00
2023-02-24T01:39:39.585Z,100.00
2023-02-24T01:42:49.532Z,100.00
2023-02-24T01:45:56.084Z,100.00
2023-02-24T01:49:08.725Z,100.00
2023-02-24T01:52:19.043Z,100.00
2023-02-24T01:55:31.955Z,100.00
2023-02-24T01:58:41.070Z,100.00
2023-02-24T02:01:48.500Z,100.00
2023-02-24T02:04:58.404Z,100.00
2023-02-24T02:08:04.878Z,100.00
2023-02-24T02:11:14.613Z,100.00
2023-02-24T02:14:22.275Z,100.00
2023-02-24T02:17:37.025Z,100.00
2023-02-24T02:21:08.940Z,100.00
2023-02-24T02:24:37.041Z,100.00
2023-02-24T02:28:31.720Z,100.00
2023-02-24T02:32:13.740Z,100.00
2023-02-24T02:35:27.879Z,100.00
2023-02-24T02:38:39.322Z,100.00
2023-02-24T02:41:54.936Z,100.00
2023-02-24T02:45:08.127Z,100.00
2023-02-24T02:48:20.301Z,100.00
2023-02-24T02:51:31.415Z,100.00
2023-02-24T02:54:45.600Z,100.00
2023-02-24T02:57:55.625Z,100.00
2023-02-24T03:01:04.681Z,100.00
2023-02-24T03:04:17.222Z,100.00
2023-02-24T03:07:31.196Z,100.00
2023-02-24T03:10:37.466Z,100.00
2023-02-24T03:13:49.626Z,100.00
2023-02-24T03:16:57.081Z,100.00
2023-02-24T03:20:14.199Z,100.00
2023-02-24T03:23:26.394Z,100.00
2023-02-24T03:26:41.529Z,100.00
2023-02-24T03:29:54.876Z,100.00
2023-02-24T03:33:06.563Z,100.00
2023-02-24T03:36:15.227Z,100.00
2023-02-24T03:39:23.584Z,100.00
2023-02-24T03:42:33.989Z,100.00
2023-02-24T03:45:42.931Z,100.00
2023-02-24T03:48:56.859Z,100.00
2023-02-24T03:52:21.666Z,100.00
2023-02-24T03:55:46.305Z,100.00
2023-02-24T03:59:06.749Z,100.00
2023-02-24T04:02:20.354Z,100.00
2023-02-24T04:05:30.167Z,100.00
2023-02-24T04:08:45.277Z,100.00
2023-02-24T04:11:57.536Z,100.00
2023-02-24T04:15:10.642Z,100.00
2023-02-24T04:18:20.007Z,100.00
2023-02-24T04:21:29.656Z,100.00
2023-02-24T04:24:37.162Z,100.00
2023-02-24T04:27:45.836Z,100.00
2023-02-24T04:30:55.878Z,100.00
2023-02-24T04:34:02.450Z,100.00
2023-02-24T04:37:09.666Z,100.00
2023-02-24T04:40:18.895Z,100.00
2023-02-24T04:43:27.052Z,100.00
2023-02-24T04:46:33.728Z,100.00
2023-02-24T04:49:41.238Z,100.00
2023-02-24T04:52:50.328Z,100.00
2023-02-24T04:55:56.795Z,100.00
2023-02-24T04:59:04.824Z,100.00
2023-02-24T05:02:11.120Z,100.00
2023-02-24T05:05:18.095Z,100.00
2023-02-24T05:08:25.282Z,100.00
2023-02-24T05:11:35.030Z,100.00
2023-02-24T05:14:44.505Z,100.00
2023-02-24T05:17:52.831Z,100.00
2023-02-24T05:21:16.720Z,100.00
2023-02-24T05:24:23.010Z,100.00
2023-02-24T05:27:29.283Z,100.00
2023-02-24T05:30:37.664Z,100.00
2023-02-24T05:33:45.325Z,100.00
2023-02-24T05:36:52.337Z,100.00
2023-02-24T05:40:00.296Z,100.00
2023-02-24T05:43:06.666Z,100.00
2023-02-24T05:46:14.462Z,100.00
2023-02-24T05:49:23.629Z,100.00
2023-02-24T05:52:30.351Z,100.00
2023-02-24T05:55:36.969Z,100.00
2023-02-24T05:58:45.249Z,100.00
2023-02-24T06:01:54.304Z,100.00
2023-02-24T06:05:01.102Z,100.00
2023-02-24T06:08:11.955Z,100.00
2023-02-24T06:11:19.226Z,100.00
2023-02-24T06:14:26.168Z,100.00
2023-02-24T06:17:33.711Z,100.00
2023-02-24T06:20:40.717Z,100.00
2023-02-24T06:23:46.699Z,100.00
2023-02-24T06:26:53.882Z,100.00
2023-02-24T06:30:00.032Z,100.00
2023-02-24T06:33:08.152Z,100.00
2023-02-24T06:36:15.576Z,100.00
2023-02-24T06:39:22.116Z,100.00
2023-02-24T06:42:28.621Z,100.00
2023-02-24T06:45:35.639Z,100.00
2023-02-24T06:48:43.584Z,100.00
2023-02-24T06:51:50.499Z,100.00
2023-02-24T06:54:57.394Z,100.00
2023-02-24T06:58:04.918Z,100.00
2023-02-24T07:01:13.156Z,100.00
2023-02-24T07:04:21.287Z,100.00
2023-02-24T07:07:29.265Z,100.00
2023-02-24T07:10:35.741Z,100.00
2023-02-24T07:13:42.999Z,100.00
2023-02-24T07:16:54.849Z,100.00
2023-02-24T07:20:11.771Z,100.00
2023-02-24T07:23:18.533Z,100.00
2023-02-24T07:26:26.544Z,100.00
2023-02-24T07:29:34.109Z,100.00
2023-02-24T07:32:40.652Z,100.00
2023-02-24T07:35:52.493Z,100.00
2023-02-24T07:39:00.483Z,100.00
2023-02-24T07:42:09.124Z,100.00
2023-02-24T07:45:15.590Z,96.85
2023-02-24T07:48:22.544Z,96.82
2023-02-24T07:51:31.301Z,97.17
2023-02-24T07:54:39.623Z,96.76
2023-02-24T07:57:46.670Z,95.97
2023-02-24T08:01:00.725Z,93.74
2023-02-24T08:04:09.302Z,94.23
2023-02-24T08:07:17.242Z,92.63
2023-02-24T08:10:26.739Z,91.84
2023-02-24T08:13:37.565Z,91.69
2023-02-24T08:16:43.957Z,90.63
2023-02-24T08:20:01.116Z,86.17
2023-02-24T08:23:11.043Z,88.58
2023-02-24T08:26:17.358Z,90.37
2023-02-24T08:29:23.628Z,86.88
2023-02-24T08:32:34.139Z,90.53
2023-02-24T08:35:45.110Z,89.98
2023-02-24T08:38:53.856Z,86.07
2023-02-24T08:42:00.234Z,84.77
2023-02-24T08:45:07.750Z,84.25
2023-02-24T08:48:26.451Z,85.01
2023-02-24T08:51:35.737Z,87.56
2023-02-24T08:54:49.283Z,86.65
2023-02-24T08:57:56.442Z,83.15
2023-02-24T09:01:03.982Z,87.16
2023-02-24T09:04:13.167Z,88.54
2023-02-24T09:07:21.555Z,95.88
2023-02-24T09:10:29.082Z,99.09
2023-02-24T09:13:36.494Z,98.74
2023-02-24T09:16:56.646Z,100.00
2023-02-24T09:20:20.582Z,100.00
2023-02-24T09:23:31.122Z,100.00
2023-02-24T09:26:44.610Z,100.00
2023-02-24T09:29:51.218Z,100.00
2023-02-24T09:33:01.522Z,100.00
2023-02-24T09:36:13.186Z,100.00
2023-02-24T09:39:19.450Z,100.00
2023-02-24T09:42:34.922Z,100.00
2023-02-24T09:45:46.162Z,100.00
2023-02-24T09:48:56.609Z,100.00
2023-02-24T09:52:09.181Z,100.00
2023-02-24T09:55:25.341Z,100.00
2023-02-24T09:58:48.008Z,100.00
2023-02-24T10:02:02.495Z,95.38
2023-02-24T10:05:19.578Z,90.03
2023-02-24T10:08:33.323Z,90.54
2023-02-24T10:11:53.563Z,86.13
2023-02-24T10:15:19.898Z,81.25
2023-02-24T10:18:33.071Z,72.18
2023-02-24T10:22:00.598Z,71.40
2023-02-24T10:25:23.548Z,70.55
2023-02-24T10:28:40.059Z,72.51
2023-02-24T10:31:52.476Z,75.02
2023-02-24T10:34:59.276Z,78.27
2023-02-24T10:38:06.377Z,76.25
2023-02-24T10:41:15.326Z,70.34
2023-02-24T10:44:26.194Z,69.09
2023-02-24T10:47:35.763Z,67.61
2023-02-24T10:50:55.428Z,69.42
2023-02-24T10:54:45.181Z,61.03
2023-02-24T10:58:00.733Z,65.29
2023-02-24T11:01:18.779Z,68.56
2023-02-24T11:04:44.329Z,67.49
2023-02-24T11:07:55.976Z,65.85
2023-02-24T11:11:07.377Z,63.65
2023-02-24T11:14:36.066Z,62.08
2023-02-24T11:17:51.101Z,64.68
2023-02-24T11:21:00.893Z,67.19
2023-02-24T11:24:20.267Z,67.82
2023-02-24T11:27:28.638Z,66.12
2023-02-24T11:30:43.617Z,67.72
2023-02-24T11:34:01.968Z,66.62
2023-02-24T11:37:22.807Z,66.01
2023-02-24T11:40:34.248Z,69.07
2023-02-24T11:43:44.677Z,68.19
2023-02-24T11:46:57.751Z,66.27
2023-02-24T11:50:30.886Z,66.98
2023-02-24T11:53:47.165Z,68.58
2023-02-24T11:56:56.100Z,73.29
2023-02-24T12:00:13.502Z,70.41
2023-02-24T12:03:29.525Z,68.37
2023-02-24T12:06:42.602Z,64.34
2023-02-24T12:10:00.309Z,67.59
2023-02-24T12:13:21.207Z,66.96
2023-02-24T12:16:33.445Z,64.85
2023-02-24T12:19:52.863Z,67.39
2023-02-24T12:23:03.682Z,64.63
2023-02-24T12:26:19.558Z,66.56
2023-02-24T12:29:42.719Z,62.68
2023-02-24T12:33:01.873Z,60.86
2023-02-24T12:36:21.527Z,59.69
2023-02-24T12:39:31.942Z,59.52
2023-02-24T12:42:48.092Z,57.83
2023-02-24T12:46:01.922Z,58.06
2023-02-24T12:49:37.258Z,60.64
2023-02-24T12:52:54.084Z,61.90
2023-02-24T12:56:09.526Z,63.77
2023-02-24T12:59:21.646Z,63.53
2023-02-24T13:02:39.007Z,60.10
2023-02-24T13:05:52.337Z,59.02
2023-02-24T13:09:06.099Z,60.29
2023-02-24T13:12:19.965Z,58.88
2023-02-24T13:15:31.551Z,56.40
2023-02-24T13:18:39.765Z,56.14
2023-02-24T13:21:56.661Z,54.75
2023-02-24T13:25:19.278Z,54.64
2023-02-24T13:28:28.741Z,53.69
2023-02-24T13:31:48.160Z,52.48
2023-02-24T13:34:55.059Z,51.55
2023-02-24T13:38:10.713Z,51.06
2023-02-24T13:41:38.838Z,49.67
2023-02-24T13:44:50.277Z,49.23
2023-02-24T13:48:23.170Z,50.39
2023-02-24T13:51:59.369Z,50.49
2023-02-24T13:55:33.224Z,49.67
2023-02-24T13:59:01.793Z,47.71
2023-02-24T14:02:15.533Z,47.39
2023-02-24T14:05:27.204Z,48.78
2023-02-24T14:08:43.479Z,49.06
2023-02-24T14:11:53.367Z,49.94
2023-02-24T14:15:00.930Z,49.87
2023-02-24T14:18:07.588Z,52.01
2023-02-24T14:21:22.879Z,52.15
2023-02-24T14:24:29.429Z,53.02
2023-02-24T14:27:36.167Z,53.16
2023-02-24T14:30:42.869Z,53.49
2023-02-24T14:33:57.517Z,53.25
2023-02-24T14:37:05.836Z,54.36
2023-02-24T14:40:17.262Z,54.22
2023-02-24T14:43:23.592Z,54.90
2023-02-24T14:46:30.223Z,54.69
2023-02-24T14:49:37.549Z,54.45
2023-02-24T14:52:51.209Z,54.83
2023-02-24T14:56:03.916Z,55.12
2023-02-24T14:59:18.649Z,57.52
2023-02-24T15:02:32.105Z,60.07
2023-02-24T15:05:44.676Z,61.95
2023-02-24T15:08:58.373Z,62.87
2023-02-24T15:12:22.987Z,64.05
2023-02-24T15:15:34.308Z,63.74
2023-02-24T15:18:41.527Z,66.05
2023-02-24T15:21:48.038Z,68.19
2023-02-24T15:24:57.413Z,67.80
2023-02-24T15:28:05.310Z,69.27
2023-02-24T15:31:19.589Z,69.47
2023-02-24T15:34:29.193Z,71.39
2023-02-24T15:37:42.743Z,71.85
2023-02-24T15:40:55.494Z,72.20
2023-02-24T15:44:01.969Z,72.99
2023-02-24T15:47:23.345Z,74.53
2023-02-24T15:50:31.578Z,73.09
2023-02-24T15:53:38.024Z,75.94
2023-02-24T15:56:46.628Z,76.23
2023-02-24T15:59:53.412Z,76.05
2023-02-24T16:02:59.989Z,77.17
2023-02-24T16:06:07.397Z,78.15
2023-02-24T16:09:15.621Z,80.50
2023-02-24T16:12:28.835Z,79.99
2023-02-24T16:15:38.058Z,80.36
2023-02-24T16:18:44.930Z,78.68
2023-02-24T16:21:51.292Z,79.63
2023-02-24T16:24:58.017Z,81.18
2023-02-24T16:28:05.903Z,81.56
2023-02-24T16:31:12.757Z,80.85
2023-02-24T16:34:19.231Z,81.78
2023-02-24T16:37:28.457Z,79.52
2023-02-24T16:40:38.438Z,79.76
2023-02-24T16:43:45.942Z,79.64
2023-02-24T16:46:53.097Z,78.16
2023-02-24T16:49:59.493Z,78.87
2023-02-24T16:53:06.386Z,77.68
2023-02-24T16:56:15.262Z,78.41
2023-02-24T16:59:24.195Z,78.37
2023-02-24T17:02:30.573Z,78.60
2023-02-24T17:05:37.415Z,76.88
2023-02-24T17:08:45.848Z,78.81
2023-02-24T17:11:52.332Z,78.79
2023-02-24T17:15:00.280Z,78.70
2023-02-24T17:18:06.842Z,78.94
2023-02-24T17:21:14.749Z,79.56
2023-02-24T17:24:23.029Z,80.63
2023-02-24T17:27:29.612Z,81.30
2023-02-24T17:30:37.539Z,80.86
2023-02-24T17:33:44.048Z,83.17
2023-02-24T17:36:50.377Z,85.17
2023-02-24T17:39:56.603Z,85.59
2023-02-24T17:43:03.098Z,86.80
2023-02-24T17:46:11.074Z,83.85
2023-02-24T17:49:17.442Z,83.75
2023-02-24T17:52:23.835Z,84.19
2023-02-24T17:55:30.141Z,84.46
2023-02-24T17:58:37.110Z,85.34
2023-02-24T18:01:45.039Z,86.22
2023-02-24T18:04:51.790Z,89.70
2023-02-24T18:07:59.484Z,89.72
2023-02-24T18:11:07.774Z,92.97
2023-02-24T18:14:14.925Z,93.37
2023-02-24T18:17:23.861Z,93.93
2023-02-24T18:20:31.085Z,96.48
2023-02-24T18:23:40.604Z,94.83
2023-02-24T18:26:47.529Z,95.03
2023-02-24T18:29:54.475Z,94.04
2023-02-24T18:33:02.704Z,93.50
2023-02-24T18:36:10.383Z,93.53
2023-02-24T18:39:17.015Z,93.03
2023-02-24T18:42:23.280Z,96.40
2023-02-24T18:45:29.499Z,96.76
2023-02-24T18:48:37.694Z,96.48
2023-02-24T18:51:46.112Z,99.24
2023-02-24T18:54:53.167Z,98.19
2023-02-24T18:57:59.485Z,99.02
2023-02-24T19:01:12.542Z,100.00
2023-02-24T19:04:20.139Z,100.00
2023-02-24T19:07:26.722Z,100.00
2023-02-24T19:10:33.382Z,98.90
2023-02-24T19:13:40.064Z,98.07
2023-02-24T19:16:46.743Z,98.71
2023-02-24T19:19:55.117Z,100.00
2023-02-24T19:23:02.143Z,100.00
2023-02-24T19:26:16.573Z,100.00
2023-02-24T19:29:22.718Z,100.00
2023-02-24T19:32:29.238Z,100.00
2023-02-24T19:35:41.356Z,100.00
2023-02-24T19:38:47.349Z,100.00
2023-02-24T19:41:54.975Z,100.00
2023-02-24T19:45:01.075Z,100.00
2023-02-24T19:48:07.481Z,100.00
2023-02-24T19:51:17.586Z,100.00
2023-02-24T19:54:24.642Z,100.00
2023-02-24T19:57:32.282Z,100.00
2023-02-24T20:00:38.817Z,100.00
2023-02-24T20:03:45.065Z,100.00
2023-02-24T20:06:52.745Z,100.00
2023-02-24T20:09:59.213Z,100.00
2023-02-24T20:13:05.986Z,100.00
2023-02-24T20:16:14.123Z,100.00
2023-02-24T20:19:20.377Z,100.00
2023-02-24T20:22:28.289Z,100.00
2023-02-24T20:25:34.653Z,100.00
2023-02-24T20:28:41.498Z,100.00
2023-02-24T20:31:48.171Z,100.00
2023-02-24T20:34:55.080Z,100.00
2023-02-24T20:38:02.749Z,100.00
2023-02-24T20:41:09.610Z,100.00
2023-02-24T20:44:15.866Z,100.00
2023-02-24T20:47:22.430Z,100.00
2023-02-24T20:50:29.528Z,100.00
2023-02-24T20:53:54.753Z,100.00
2023-02-24T20:57:03.306Z,100.00
2023-02-24T21:00:10.974Z,100.00
2023-02-24T21:03:18.973Z,100.00
2023-02-24T21:06:26.123Z,100.00
2023-02-24T21:09:37.423Z,100.00
2023-02-24T21:12:44.078Z,100.00
2023-02-24T21:15:52.411Z,100.00
2023-02-24T21:18:59.062Z,100.00
2023-02-24T21:22:05.821Z,100.00
2023-02-24T21:25:13.611Z,100.00
2023-02-24T21:28:20.297Z,100.00
2023-02-24T21:31:28.377Z,100.00
2023-02-24T21:34:34.843Z,100.00
2023-02-24T21:37:41.288Z,100.00
2023-02-24T21:40:49.278Z,100.00
2023-02-24T21:43:56.652Z,100.00
2023-02-24T21:47:03.078Z,100.00
2023-02-24T21:50:12.016Z,100.00
2023-02-24T21:53:18.772Z,100.00
2023-02-24T21:56:28.361Z,100.00
2023-02-24T21:59:34.664Z,100.00
2023-02-24T22:02:40.872Z,100.00
2023-02-24T22:05:50.207Z,100.00
2023-02-24T22:08:57.241Z,100.00
2023-02-24T22:12:06.299Z,100.00
2023-02-24T22:15:13.884Z,100.00
2023-02-24T22:18:21.265Z,100.00
2023-02-24T22:21:30.067Z,100.00
2023-02-24T22:24:36.339Z,100.00
2023-02-24T22:27:43.848Z,100.00
2023-02-24T22:30:57.790Z,100.00
2023-02-24T22:34:05.640Z,100.00
2023-02-24T22:37:11.897Z,100.00
2023-02-24T22:40:20.501Z,100.00
2023-02-24T22:43:29.868Z,100.00
2023-02-24T22:46:38.435Z,100.00
2023-02-24T22:49:44.900Z,100.00
2023-02-24T22:52:51.217Z,100.00
2023-02-24T22:55:58.141Z,100.00
2023-02-24T22:59:06.047Z,100.00
2023-02-24T23:02:12.368Z,100.00
2023-02-24T23:05:18.918Z,100.00
2023-02-24T23:08:25.854Z,100.00
2023-02-24T23:11:33.918Z,100.00
2023-02-24T23:14:41.751Z,100.00
2023-02-24T23:17:49.005Z,100.00
2023-02-24T23:21:00.067Z,100.00
2023-02-24T23:24:08.031Z,100.00
2023-02-24T23:27:14.502Z,100.00
2023-02-24T23:30:22.458Z,100.00
2023-02-24T23:33:28.846Z,100.00
2023-02-24T23:36:36.189Z,100.00
2023-02-24T23:39:42.859Z,100.00
2023-02-24T23:42:49.502Z,100.00
2023-02-24T23:45:57.128Z,100.00
2023-02-24T23:49:03.571Z,100.00
2023-02-24T23:52:11.560Z,100.00
2023-02-24T23:55:17.882Z,100.00
2023-02-24T23:58:24.565Z,100.00
